Etusivu
METAR-TAF:

METAR-TAF

Lentoasemat :

Batna, Algeria

Leveyspiiri: 35-33N, Pituuspiiri: 006-11E, korkeus merenpinnasta: 1052 m

Tämänhetkinen sää

Tämä raportti tehtiin 1 tunti ja 0 minuuttia sitten, kello 04.00 UTC
tyyntä
Lämpötila 10°C
Kosteus 87%
Ilmanpaine 1016 hPa
Näkyvyys 10 km tai enemmän
ei pilviä alle 1500 m:ssä eikä cumulonimbus-pilviä

METAR: DABT 310400Z 00000KT CAVOK 10/08 Q1016

Aika: 06:00 (05:00 UTC)

Sääennuste

Tämä raportti tehtiin 6 tuntia ja 0 minuuttia sitten, kello 23.00 UTC
Ennuste voimassa 31. päivästä klo 00 UTC - 31. päivään klo 24 UTC
Tuuli 10 kn pohjoisesta
Näkyvyys 10 km tai enemmän
Muutamia pilviä 2600 ft:n korkeudessa
Todennäköisyys 30% :
Ajoittain
31. päivästä klo 12 UTC - 31. päivään klo 18 UTC
Muutamia pilviä 2300 ft:n korkeudessa, Kasvava cumulus-pilvi.

TAF: DABT 302300Z 3100/3124 01010KT 9999 FEW026 PROB30 TEMPO 3112/3118 FEW023TCU

Säähavainnot ja -ennusteet yli 4000 lentoasemalta (METAR- ja TAF-raportit).

Käytössä olevat sääasemat on merkitty karttaan keltaisilla ja punaisilla pisteillä.

Aseta hiiri pisteen päälle nähdäksesi sääaseman nimen.

Klikkaa sitten nähdäksesi säähavainnot ja -ennusteet.

Kartan vaihtaminen: klikkaa mustalla rastilla varustettuja vihreitä pisteitä, niin voit zoomata sisään; viivalla varustettua vihreää pistettä, niin voit zoomata ulos tai vihreitä nuolia, niin pääset viereisille kartoille.


METAR-TAF: